»·PEaware :: DAL717 KYKM-KSEA

DAL717 :: KYKM-KSEA

FLIGHT INFORMATION

Flight Status: Arrived
Operator:
Delta Air Lines
More flights by this operator :: More flights under this callsign
Pilot: Dean L. (8400)
Aircraft: BOEING 717-200
(B712)
More flights by this aircraft type
Origin: KYKM Yakima Air Term/Mcallister
United States
Destination: KSEA Seattle-Tacoma Intl
United States
More flights between these airports :: More routes between these airports
Route: +YKM V4 CHINS
File this flight plan on PilotEdge
Remarks:
Altitude:
(Current/Filed)
14,000ft
Speed:
(Current/Filed)
400kts
Departed: 02-Dec-17 01:54 PM
Arrived: 02-Dec-17 02:26 PM
Distance/Time
Traveled:
89nm/0:31
Distance/Time
To Go:
Arrived

Flight Plot

Page will automatically refresh every two minutes.

Flight plan parsing failed; only flown route is shown


Map Options




Map Legend


Flown Route
Filed Route
Departure Airport
Arrival Airport
Navaid (VOR, NDB)
Fix

Horizontal Profiles

Position Reports

Time Latitude Longitude Heading Altitude Ground
Speed
02-Dec-17 13:41 46.569886 -120.541736 357 1103ft 0kts
02-Dec-17 13:42 46.569887 -120.541737 357 1103ft 0kts
02-Dec-17 13:43 46.569888 -120.541737 357 1103ft 0kts
02-Dec-17 13:44 46.569888 -120.541737 357 1103ft 0kts
02-Dec-17 13:45 46.569889 -120.541737 357 1103ft 0kts
02-Dec-17 13:46 46.569890 -120.541737 357 1103ft 0kts
02-Dec-17 13:47 46.569891 -120.541737 357 1103ft 0kts
02-Dec-17 13:48 46.569892 -120.541737 357 1103ft 0kts
02-Dec-17 13:49 46.569892 -120.541737 357 1103ft 0kts
02-Dec-17 13:50 46.569893 -120.541737 357 1103ft 0kts
02-Dec-17 13:51 46.569894 -120.541737 357 1103ft 0kts
02-Dec-17 13:52 46.569895 -120.541737 357 1103ft 0kts
02-Dec-17 13:53 46.569896 -120.541737 357 1103ft 0kts
02-Dec-17 13:54 46.569897 -120.541737 357 1103ft 0kts
02-Dec-17 13:55 46.569661 -120.539430 149 1103ft 20kts
02-Dec-17 13:56 46.566409 -120.532028 112 1103ft 24kts
02-Dec-17 13:57 46.565694 -120.531193 184 1103ft 0kts
02-Dec-17 13:58 46.565665 -120.531205 196 1103ft 1kts
02-Dec-17 13:59 46.569010 -120.544821 289 1104ft 150kts
02-Dec-17 14:00 46.572554 -120.619384 236 4622ft 162kts
02-Dec-17 14:01 46.569380 -120.690215 288 6402ft 224kts
02-Dec-17 14:02 46.612049 -120.766600 329 7484ft 248kts
02-Dec-17 14:03 46.684248 -120.758804 46 9412ft 306kts
02-Dec-17 14:04 46.757511 -120.706267 357 9945ft 304kts
02-Dec-17 14:05 46.812639 -120.785568 280 10206ft 316kts
02-Dec-17 14:06 46.830311 -120.918593 276 11377ft 359kts
02-Dec-17 14:07 46.856929 -121.060894 293 13790ft 381kts
02-Dec-17 14:08 46.911919 -121.196631 301 13899ft 390kts
02-Dec-17 14:09 46.982139 -121.318694 307 13877ft 394kts
02-Dec-17 14:10 47.055672 -121.438436 306 13991ft 392kts
02-Dec-17 14:11 47.122456 -121.554862 304 13987ft 350kts
02-Dec-17 14:12 47.179107 -121.652807 304 13989ft 289kts
02-Dec-17 14:13 47.231801 -121.741987 305 13847ft 284kts
02-Dec-17 14:14 47.283700 -121.830288 304 12770ft 285kts
02-Dec-17 14:15 47.335148 -121.918440 305 11772ft 283kts
02-Dec-17 14:16 47.386655 -122.007337 304 10589ft 286kts
02-Dec-17 14:17 47.438490 -122.096669 305 9092ft 288kts
02-Dec-17 14:18 47.502818 -122.162362 357 7589ft 303kts
02-Dec-17 14:19 47.585153 -122.149643 7 6704ft 283kts
02-Dec-17 14:20 47.660313 -122.135044 7 6075ft 261kts
02-Dec-17 14:21 47.724551 -122.149360 298 5395ft 230kts
02-Dec-17 14:22 47.741414 -122.234133 277 4829ft 199kts
02-Dec-17 14:23 47.735757 -122.304673 210 4111ft 175kts
02-Dec-17 14:24 47.695083 -122.340671 205 4031ft 151kts
02-Dec-17 14:25 47.655071 -122.334292 168 4051ft 146kts
02-Dec-17 14:26 47.614890 -122.322886 174 4060ft 146kts
02-Dec-17 14:27 47.574493 -122.318973 174 2797ft 146kts
02-Dec-17 14:28 47.532285 -122.315837 175 2083ft 164kts
02-Dec-17 14:29 47.490163 -122.311286 172 989ft 146kts
02-Dec-17 14:30 47.450736 -122.307721 180 442ft 112kts
02-Dec-17 14:31 47.436015 -122.307054 91 441ft 1kts
02-Dec-17 14:32 47.439488 -122.304403 13 441ft 0kts
02-Dec-17 14:33 47.439489 -122.304403 13 441ft 0kts
02-Dec-17 14:34 47.439490 -122.304403 13 441ft 0kts
02-Dec-17 14:35 47.439491 -122.304402 13 441ft 0kts

Navigation Log

Ident Type
Flight plan parsing failed, navigation log unavailable